Time;durP1;ratioP1;P1;durP2;ratioP2;P2;SDS_P1;SDS_P2;PMS_P1;PMS_P2;Temp;Humidity;BMP_temperature;BMP_pressure;BME280_temperature;BME280_humidity;BME280_pressure;Samples;Min_cycle;Max_cycle;Signal;HPM_P1;HPM_P2
2021/01/02 00:00:06;;;;;;;0.00;0.00;;;;;;;;;;4949183;28;20562;-69
2021/01/02 00:02:42;;;;;;;0.00;0.00;;;;;;;;;;4944012;28;20053;-69
2021/01/02 00:05:16;;;;;;;0.95;0.95;;;;;;;;;;4959771;28;20178;-68
2021/01/02 00:07:57;;;;;;;0.82;0.63;;;;;;;;;;4957874;28;20436;-69
2021/01/02 00:10:26;;;;;;;0.30;0.30;;;;;;;;;;4956509;28;20034;-69
2021/01/02 00:13:01;;;;;;;0.00;0.00;;;;;;;;;;4940388;28;20069;-68
2021/01/02 00:15:52;;;;;;;0.00;0.00;;;;;;;;;;4956479;28;20027;-67
2021/01/02 00:18:28;;;;;;;0.00;0.00;;;;;;;;;;4924521;28;20039;-69
2021/01/02 00:21:05;;;;;;;0.00;0.00;;;;;;;;;;4958759;28;20521;-68
2021/01/02 00:23:49;;;;;;;1.48;1.38;;;;;;;;;;4937589;28;20034;-68
2021/01/02 00:26:33;;;;;;;0.00;0.00;;;;;;;;;;4961139;28;20044;-68
2021/01/02 00:29:03;;;;;;;0.47;0.47;;;;;;;;;;4939026;28;20317;-70
2021/01/02 00:31:33;;;;;;;0.00;0.00;;;;;;;;;;4939533;28;20455;-69
2021/01/02 00:34:00;;;;;;;0.00;0.00;;;;;;;;;;4957013;28;20107;-68
2021/01/02 00:36:34;;;;;;;0.08;0.08;;;;;;;;;;4954794;28;20113;-69
2021/01/02 00:38:59;;;;;;;0.03;0.03;;;;;;;;;;4942256;28;20109;-67
2021/01/02 00:41:27;;;;;;;0.73;0.38;;;;;;;;;;4960467;28;20078;-68
2021/01/02 00:43:56;;;;;;;0.10;0.10;;;;;;;;;;4955687;28;20689;-68
2021/01/02 00:46:26;;;;;;;0.00;0.00;;;;;;;;;;4959049;28;20041;-69
2021/01/02 00:48:54;;;;;;;0.20;0.20;;;;;;;;;;4944386;28;20483;-68
2021/01/02 00:51:20;;;;;;;0.10;0.10;;;;;;;;;;4960875;28;20035;-68
2021/01/02 00:53:50;;;;;;;0.32;0.32;;;;;;;;;;4956318;28;20030;-69
2021/01/02 00:56:29;;;;;;;0.00;0.00;;;;;;;;;;4959612;28;20041;-68
2021/01/02 00:59:15;;;;;;;0.30;0.30;;;;;;;;;;4960033;28;20034;-68
2021/01/02 01:01:47;;;;;;;0.85;0.85;;;;;;;;;;4961138;28;20034;-69
2021/01/02 01:04:27;;;;;;;0.00;0.00;;;;;;;;;;4963305;28;20018;-69
2021/01/02 01:06:56;;;;;;;0.20;0.20;;;;;;;;;;4958903;28;20409;-68
2021/01/02 01:09:23;;;;;;;0.32;0.32;;;;;;;;;;4960665;28;20206;-69
2021/01/02 01:11:57;;;;;;;1.77;0.82;;;;;;;;;;4946223;28;20378;-69
2021/01/02 01:14:29;;;;;;;0.00;0.00;;;;;;;;;;4955556;28;20062;-69
2021/01/02 01:16:57;;;;;;;0.55;0.55;;;;;;;;;;4961145;28;20148;-70
2021/01/02 01:19:26;;;;;;;0.17;0.17;;;;;;;;;;4958494;28;20429;-68
2021/01/02 01:21:58;;;;;;;0.00;0.00;;;;;;;;;;4964664;28;20038;-69
2021/01/02 01:28:11;;;;;;;0.20;0.20;;;;;;;;;;4960871;28;20037;-69
2021/01/02 01:30:42;;;;;;;0.00;0.00;;;;;;;;;;4965977;28;20401;-70
2021/01/02 01:33:14;;;;;;;0.57;0.57;;;;;;;;;;4965237;28;20057;-69
2021/01/02 01:35:42;;;;;;;0.00;0.00;;;;;;;;;;4965229;28;20077;-70
2021/01/02 01:38:18;;;;;;;0.00;0.00;;;;;;;;;;4965364;28;20061;-69
2021/01/02 01:40:44;;;;;;;0.00;0.00;;;;;;;;;;4965975;28;20022;-70
2021/01/02 01:43:20;;;;;;;2.28;1.30;;;;;;;;;;4947817;28;21017;-69
2021/01/02 01:46:08;;;;;;;0.00;0.00;;;;;;;;;;4967913;28;20259;-69
2021/01/02 01:48:48;;;;;;;0.00;0.00;;;;;;;;;;4963078;28;20034;-68
2021/01/02 01:51:29;;;;;;;0.17;0.17;;;;;;;;;;4964687;28;20041;-69
2021/01/02 01:53:55;;;;;;;0.00;0.00;;;;;;;;;;4963227;28;20042;-70
2021/01/02 01:56:38;;;;;;;0.00;0.00;;;;;;;;;;4945773;28;20573;-69
2021/01/02 01:59:15;;;;;;;0.00;0.00;;;;;;;;;;4960682;28;20048;-69
2021/01/02 02:01:45;;;;;;;0.00;0.00;;;;;;;;;;4945834;28;20433;-69
2021/01/02 02:04:10;;;;;;;0.00;0.00;;;;;;;;;;4965093;28;20036;-69
2021/01/02 02:06:38;;;;;;;1.95;0.73;;;;;;;;;;4966309;28;20033;-69
2021/01/02 02:09:06;;;;;;;0.03;0.03;;;;;;;;;;4962522;28;20615;-70
2021/01/02 02:11:31;;;;;;;0.00;0.00;;;;;;;;;;4959983;28;20046;-68
2021/01/02 02:14:00;;;;;;;0.00;0.00;;;;;;;;;;4958855;28;20029;-68
2021/01/02 02:16:39;;;;;;;0.00;0.00;;;;;;;;;;4965347;28;20033;-69
2021/01/02 02:19:06;;;;;;;0.00;0.00;;;;;;;;;;4958214;28;20037;-69
2021/01/02 02:21:37;;;;;;;0.10;0.10;;;;;;;;;;4949798;28;20045;-69
2021/01/02 02:24:06;;;;;;;0.00;0.00;;;;;;;;;;4962434;28;20037;-68
2021/01/02 02:26:36;;;;;;;0.00;0.00;;;;;;;;;;4941822;28;20347;-68
2021/01/02 02:29:14;;;;;;;0.10;0.10;;;;;;;;;;4962934;28;20133;-67
2021/01/02 02:31:45;;;;;;;0.00;0.00;;;;;;;;;;4963153;28;20053;-68
2021/01/02 02:34:26;;;;;;;0.20;0.20;;;;;;;;;;4963581;28;20034;-68
2021/01/02 02:36:51;;;;;;;0.00;0.00;;;;;;;;;;4959824;28;20089;-68
2021/01/02 02:39:17;;;;;;;0.00;0.00;;;;;;;;;;4963395;28;20042;-68
2021/01/02 02:42:11;;;;;;;0.00;0.00;;;;;;;;;;4961796;28;20125;-68
2021/01/02 02:44:44;;;;;;;0.00;0.00;;;;;;;;;;4940431;28;20745;-68
2021/01/02 02:47:14;;;;;;;2.08;0.68;;;;;;;;;;4959665;28;20485;-68
2021/01/02 02:49:42;;;;;;;0.30;0.30;;;;;;;;;;4942714;28;20055;-67
2021/01/02 02:52:26;;;;;;;0.00;0.00;;;;;;;;;;4943999;28;20449;-69
2021/01/02 02:54:52;;;;;;;0.00;0.00;;;;;;;;;;4943396;28;20261;-69
2021/01/02 02:57:20;;;;;;;0.00;0.00;;;;;;;;;;4959921;28;20109;-68
2021/01/02 02:59:46;;;;;;;0.35;0.35;;;;;;;;;;4943951;28;20502;-68
2021/01/02 03:02:16;;;;;;;0.10;0.10;;;;;;;;;;4943455;28;20037;-69
2021/01/02 03:04:44;;;;;;;0.00;0.00;;;;;;;;;;4959506;28;20034;-69
2021/01/02 03:07:13;;;;;;;0.00;0.00;;;;;;;;;;4960599;28;20034;-69
2021/01/02 03:09:38;;;;;;;0.00;0.00;;;;;;;;;;4945440;28;20035;-68
2021/01/02 03:12:09;;;;;;;0.00;0.00;;;;;;;;;;4947596;28;20041;-69
2021/01/02 03:14:37;;;;;;;0.00;0.00;;;;;;;;;;4945446;28;20029;-69
2021/01/02 03:17:02;;;;;;;0.10;0.10;;;;;;;;;;4943185;28;20067;-68
2021/01/02 03:19:31;;;;;;;0.00;0.00;;;;;;;;;;4962030;28;20118;-68
2021/01/02 03:21:59;;;;;;;0.00;0.00;;;;;;;;;;4946149;28;20065;-68
2021/01/02 03:24:26;;;;;;;0.30;0.30;;;;;;;;;;4939534;28;20034;-69
2021/01/02 03:26:51;;;;;;;0.00;0.00;;;;;;;;;;4960144;28;20045;-69
2021/01/02 03:29:19;;;;;;;0.00;0.00;;;;;;;;;;4960718;28;20042;-68
2021/01/02 03:31:45;;;;;;;0.00;0.00;;;;;;;;;;4966104;28;20021;-68
2021/01/02 03:34:11;;;;;;;0.00;0.00;;;;;;;;;;4944704;28;20055;-68
2021/01/02 03:36:38;;;;;;;0.20;0.20;;;;;;;;;;4961868;28;20707;-70
2021/01/02 03:39:04;;;;;;;0.47;0.47;;;;;;;;;;4938955;28;20044;-68
2021/01/02 03:41:30;;;;;;;0.00;0.00;;;;;;;;;;4945293;28;20125;-70
2021/01/02 03:44:00;;;;;;;0.22;0.22;;;;;;;;;;4961229;28;20136;-69
2021/01/02 03:46:31;;;;;;;0.00;0.00;;;;;;;;;;4942832;28;21704;-69
2021/01/02 03:48:58;;;;;;;0.00;0.00;;;;;;;;;;4947477;28;20026;-68
2021/01/02 03:51:29;;;;;;;0.00;0.00;;;;;;;;;;4946048;28;20022;-69
2021/01/02 03:53:54;;;;;;;0.00;0.00;;;;;;;;;;4946151;28;20126;-69
2021/01/02 03:56:20;;;;;;;0.20;0.20;;;;;;;;;;4958304;28;20030;-70
2021/01/02 03:58:45;;;;;;;0.00;0.00;;;;;;;;;;4960100;28;20237;-70
2021/01/02 04:01:16;;;;;;;0.38;0.30;;;;;;;;;;4959729;28;20702;-68
2021/01/02 04:03:44;;;;;;;0.00;0.00;;;;;;;;;;4935480;28;20313;-69
2021/01/02 04:06:09;;;;;;;0.00;0.00;;;;;;;;;;4957680;28;20038;-69
2021/01/02 04:08:35;;;;;;;0.55;0.55;;;;;;;;;;4957770;28;20483;-69
2021/01/02 04:11:00;;;;;;;0.00;0.00;;;;;;;;;;4938849;28;20093;-69
2021/01/02 04:13:28;;;;;;;0.00;0.00;;;;;;;;;;4958655;28;20304;-68
2021/01/02 04:15:54;;;;;;;0.25;0.25;;;;;;;;;;4960568;28;20664;-68
2021/01/02 04:18:19;;;;;;;0.00;0.00;;;;;;;;;;4937817;28;20038;-69
2021/01/02 04:20:53;;;;;;;0.00;0.00;;;;;;;;;;4953406;28;20061;-69
2021/01/02 04:23:20;;;;;;;0.00;0.00;;;;;;;;;;4938736;28;20042;-70
2021/01/02 04:25:45;;;;;;;0.00;0.00;;;;;;;;;;4946421;28;20058;-70
2021/01/02 04:28:11;;;;;;;0.00;0.00;;;;;;;;;;4955273;28;20088;-69
2021/01/02 04:30:39;;;;;;;0.00;0.00;;;;;;;;;;4954576;28;20038;-69
2021/01/02 04:33:05;;;;;;;0.00;0.00;;;;;;;;;;4954855;28;20427;-69
2021/01/02 04:35:31;;;;;;;0.00;0.00;;;;;;;;;;4948132;28;20154;-68
2021/01/02 04:38:02;;;;;;;0.05;0.05;;;;;;;;;;4940069;28;20591;-68
2021/01/02 04:40:30;;;;;;;0.00;0.00;;;;;;;;;;4949584;28;20040;-69
2021/01/02 04:42:56;;;;;;;0.00;0.00;;;;;;;;;;4944466;28;20038;-68
2021/01/02 04:45:24;;;;;;;0.80;0.80;;;;;;;;;;4940023;28;20200;-69
2021/01/02 04:47:50;;;;;;;0.00;0.00;;;;;;;;;;4948932;28;20042;-69
2021/01/02 04:50:18;;;;;;;0.10;0.10;;;;;;;;;;4958614;28;20035;-69
2021/01/02 04:52:45;;;;;;;0.00;0.00;;;;;;;;;;4961968;28;20696;-69
2021/01/02 04:55:13;;;;;;;0.00;0.00;;;;;;;;;;4961589;28;20746;-68
2021/01/02 04:57:45;;;;;;;0.43;0.43;;;;;;;;;;4962157;28;20026;-70
2021/01/02 05:00:13;;;;;;;0.00;0.00;;;;;;;;;;4959333;28;20050;-69
2021/01/02 05:02:43;;;;;;;0.00;0.00;;;;;;;;;;4959608;28;20112;-69
2021/01/02 05:05:09;;;;;;;0.00;0.00;;;;;;;;;;4941811;28;21018;-68
2021/01/02 05:07:34;;;;;;;0.20;0.20;;;;;;;;;;4957029;28;20081;-68
2021/01/02 05:10:00;;;;;;;0.00;0.00;;;;;;;;;;4963155;28;20143;-69
2021/01/02 05:12:30;;;;;;;0.00;0.00;;;;;;;;;;4958207;28;20113;-69
2021/01/02 05:15:04;;;;;;;0.10;0.10;;;;;;;;;;4960345;28;20623;-68
2021/01/02 05:17:30;;;;;;;0.00;0.00;;;;;;;;;;4962427;28;20081;-69
2021/01/02 05:20:04;;;;;;;0.00;0.00;;;;;;;;;;4966199;28;20584;-68
2021/01/02 05:22:32;;;;;;;0.00;0.00;;;;;;;;;;4965839;28;20038;-69
2021/01/02 05:25:08;;;;;;;0.00;0.00;;;;;;;;;;4964996;28;20027;-70
2021/01/02 05:27:37;;;;;;;0.00;0.00;;;;;;;;;;4966952;28;20026;-67
2021/01/02 05:30:15;;;;;;;0.08;0.08;;;;;;;;;;4965058;28;20068;-69
2021/01/02 05:32:53;;;;;;;0.45;0.45;;;;;;;;;;4948466;28;20038;-67
2021/01/02 05:35:21;;;;;;;0.45;0.45;;;;;;;;;;4950378;28;20576;-68
2021/01/02 05:37:50;;;;;;;0.00;0.00;;;;;;;;;;4963139;28;20018;-69
2021/01/02 05:40:35;;;;;;;0.00;0.00;;;;;;;;;;4966736;28;20030;-69
2021/01/02 05:43:03;;;;;;;0.00;0.00;;;;;;;;;;4962339;28;20127;-68
2021/01/02 05:45:29;;;;;;;0.00;0.00;;;;;;;;;;4959987;28;20053;-67
2021/01/02 05:47:56;;;;;;;0.00;0.00;;;;;;;;;;4962533;28;20121;-69
2021/01/02 05:50:22;;;;;;;1.45;1.35;;;;;;;;;;4960005;28;20198;-68
2021/01/02 05:52:51;;;;;;;0.13;0.13;;;;;;;;;;4943725;28;20728;-69
2021/01/02 05:55:29;;;;;;;0.10;0.10;;;;;;;;;;4964251;28;20027;-69
2021/01/02 05:58:14;;;;;;;0.00;0.00;;;;;;;;;;4959788;28;20030;-68
2021/01/02 06:00:47;;;;;;;0.15;0.15;;;;;;;;;;4949882;28;20077;-67
2021/01/02 06:03:22;;;;;;;0.10;0.10;;;;;;;;;;4948106;28;20050;-68
2021/01/02 06:06:04;;;;;;;0.00;0.00;;;;;;;;;;4950250;28;20094;-68
2021/01/02 06:08:37;;;;;;;0.28;0.28;;;;;;;;;;4948956;28;20026;-68
2021/01/02 06:11:09;;;;;;;0.00;0.00;;;;;;;;;;4949053;28;20263;-67
2021/01/02 06:13:37;;;;;;;0.00;0.00;;;;;;;;;;4948056;28;20030;-68
2021/01/02 06:16:04;;;;;;;0.00;0.00;;;;;;;;;;4929815;28;22122;-68
2021/01/02 06:18:32;;;;;;;0.00;0.00;;;;;;;;;;4947946;28;20037;-68
2021/01/02 06:21:07;;;;;;;0.25;0.25;;;;;;;;;;4945163;28;20124;-68
2021/01/02 06:23:34;;;;;;;0.00;0.00;;;;;;;;;;4927204;28;20117;-68
2021/01/02 06:26:04;;;;;;;0.00;0.00;;;;;;;;;;4947609;28;20330;-68
2021/01/02 06:28:33;;;;;;;0.13;0.13;;;;;;;;;;4945316;28;20058;-67
2021/01/02 06:30:59;;;;;;;0.00;0.00;;;;;;;;;;4942525;28;20043;-68
2021/01/02 06:33:31;;;;;;;0.00;0.00;;;;;;;;;;4950531;28;20058;-68
2021/01/02 06:36:00;;;;;;;0.00;0.00;;;;;;;;;;4945421;28;20027;-69
2021/01/02 06:38:26;;;;;;;0.00;0.00;;;;;;;;;;4942630;28;20387;-69
2021/01/02 06:40:52;;;;;;;0.35;0.35;;;;;;;;;;4913864;28;20042;-68
2021/01/02 06:43:20;;;;;;;0.00;0.00;;;;;;;;;;4940764;28;20046;-68
2021/01/02 06:45:56;;;;;;;0.00;0.00;;;;;;;;;;4941409;28;20158;-68
2021/01/02 06:48:25;;;;;;;0.00;0.00;;;;;;;;;;4941972;28;20042;-67
2021/01/02 06:50:55;;;;;;;0.25;0.25;;;;;;;;;;4942060;28;20034;-68
2021/01/02 06:53:23;;;;;;;0.17;0.17;;;;;;;;;;4947100;28;20549;-67
2021/01/02 06:56:10;;;;;;;0.00;0.00;;;;;;;;;;4929005;28;20077;-67
2021/01/02 06:58:36;;;;;;;0.00;0.00;;;;;;;;;;4928380;28;20876;-69
2021/01/02 07:01:06;;;;;;;0.00;0.00;;;;;;;;;;4928251;28;20410;-68
2021/01/02 07:03:44;;;;;;;0.00;0.00;;;;;;;;;;4929113;28;20027;-68
2021/01/02 07:06:35;;;;;;;0.00;0.00;;;;;;;;;;4944331;28;20050;-68
2021/01/02 07:09:09;;;;;;;0.00;0.00;;;;;;;;;;4941350;28;20414;-68
2021/01/02 07:11:38;;;;;;;0.00;0.00;;;;;;;;;;4941358;28;20059;-68
2021/01/02 07:14:07;;;;;;;0.00;0.00;;;;;;;;;;4943713;28;20027;-68
2021/01/02 07:16:53;;;;;;;0.28;0.28;;;;;;;;;;4946040;28;20116;-67
2021/01/02 07:19:22;;;;;;;0.00;0.00;;;;;;;;;;4942203;28;20053;-68
2021/01/02 07:22:08;;;;;;;0.00;0.00;;;;;;;;;;4944545;28;20194;-67
2021/01/02 07:28:09;;;;;;;0.00;0.00;;;;;;;;;;4941310;28;20229;-68
2021/01/02 07:30:35;;;;;;;0.00;0.00;;;;;;;;;;4923340;28;20054;-69
2021/01/02 07:33:02;;;;;;;0.00;0.00;;;;;;;;;;4922334;28;20051;-68
2021/01/02 07:35:32;;;;;;;0.22;0.22;;;;;;;;;;4922724;28;20038;-69
2021/01/02 07:38:00;;;;;;;0.35;0.35;;;;;;;;;;4924468;28;20121;-69
2021/01/02 07:40:26;;;;;;;0.00;0.00;;;;;;;;;;4923840;28;20170;-68
2021/01/02 07:42:58;;;;;;;0.00;0.00;;;;;;;;;;4948321;28;20047;-69
2021/01/02 07:45:27;;;;;;;0.08;0.08;;;;;;;;;;4925708;28;20039;-68
2021/01/02 07:47:56;;;;;;;0.00;0.00;;;;;;;;;;4946418;28;20338;-68
2021/01/02 07:50:27;;;;;;;0.10;0.10;;;;;;;;;;4941764;28;20058;-68
2021/01/02 07:52:59;;;;;;;0.10;0.10;;;;;;;;;;4945871;28;20023;-68
2021/01/02 07:55:32;;;;;;;0.08;0.08;;;;;;;;;;4929722;28;20034;-68
2021/01/02 07:58:01;;;;;;;0.00;0.00;;;;;;;;;;4946268;28;20043;-68
2021/01/02 08:00:29;;;;;;;0.00;0.00;;;;;;;;;;4938183;28;20083;-67
2021/01/02 08:03:06;;;;;;;0.00;0.00;;;;;;;;;;4940740;28;20387;-68
2021/01/02 08:05:37;;;;;;;0.00;0.00;;;;;;;;;;4939552;28;20029;-68
2021/01/02 08:08:05;;;;;;;0.10;0.10;;;;;;;;;;4920918;28;20043;-68
2021/01/02 08:10:31;;;;;;;0.35;0.35;;;;;;;;;;4942590;28;20053;-68
2021/01/02 08:13:00;;;;;;;0.00;0.00;;;;;;;;;;4922833;28;21934;-68
2021/01/02 08:15:28;;;;;;;0.00;0.00;;;;;;;;;;4925321;28;20035;-69
2021/01/02 08:17:53;;;;;;;0.00;0.00;;;;;;;;;;4945650;28;20072;-67
2021/01/02 08:20:19;;;;;;;0.00;0.00;;;;;;;;;;4929358;28;20026;-68
2021/01/02 08:22:46;;;;;;;0.00;0.00;;;;;;;;;;4942350;28;20030;-67
2021/01/02 08:25:17;;;;;;;0.00;0.00;;;;;;;;;;4942508;28;20325;-70
2021/01/02 08:27:47;;;;;;;0.08;0.08;;;;;;;;;;4928856;28;20049;-67
2021/01/02 08:30:13;;;;;;;0.00;0.00;;;;;;;;;;4947212;28;20611;-68
2021/01/02 08:32:46;;;;;;;0.00;0.00;;;;;;;;;;4942452;28;20043;-69
2021/01/02 08:35:31;;;;;;;0.00;0.00;;;;;;;;;;4942817;28;20031;-69
2021/01/02 08:38:04;;;;;;;0.00;0.00;;;;;;;;;;4945874;28;20023;-68
2021/01/02 08:40:38;;;;;;;0.00;0.00;;;;;;;;;;4941806;28;20034;-68
2021/01/02 08:43:07;;;;;;;0.00;0.00;;;;;;;;;;4948231;28;20126;-68
2021/01/02 08:45:39;;;;;;;0.10;0.10;;;;;;;;;;4945448;28;20035;-68
2021/01/02 08:48:06;;;;;;;0.00;0.00;;;;;;;;;;4948642;28;20039;-68
2021/01/02 08:50:34;;;;;;;0.00;0.00;;;;;;;;;;4950417;28;20027;-68
2021/01/02 08:53:03;;;;;;;0.10;0.10;;;;;;;;;;4945152;28;20495;-69
2021/01/02 08:55:29;;;;;;;0.30;0.30;;;;;;;;;;4930023;28;20030;-69
2021/01/02 08:57:55;;;;;;;0.00;0.00;;;;;;;;;;4949199;28;20027;-68
2021/01/02 09:00:23;;;;;;;0.00;0.00;;;;;;;;;;4963042;28;20940;-69
2021/01/02 09:02:54;;;;;;;0.00;0.00;;;;;;;;;;4948239;28;20049;-70
2021/01/02 09:05:49;;;;;;;0.05;0.05;;;;;;;;;;4970386;28;20034;-68
2021/01/02 09:08:20;;;;;;;0.00;0.00;;;;;;;;;;4954019;28;20654;-68
2021/01/02 09:10:54;;;;;;;0.00;0.00;;;;;;;;;;4966289;28;20042;-68
2021/01/02 09:13:22;;;;;;;4.32;1.35;;;;;;;;;;4966084;28;20022;-68
2021/01/02 09:16:03;;;;;;;0.10;0.10;;;;;;;;;;4963970;28;20191;-68
2021/01/02 09:18:32;;;;;;;0.00;0.00;;;;;;;;;;4965158;28;20501;-68
2021/01/02 09:20:58;;;;;;;0.00;0.00;;;;;;;;;;4966314;28;20392;-68
2021/01/02 09:23:32;;;;;;;3.08;1.35;;;;;;;;;;4966537;28;20186;-68
2021/01/02 09:25:58;;;;;;;0.00;0.00;;;;;;;;;;4966837;28;20586;-69
2021/01/02 09:28:26;;;;;;;0.30;0.30;;;;;;;;;;4964522;28;20282;-68
2021/01/02 09:30:52;;;;;;;0.00;0.00;;;;;;;;;;4963845;28;20039;-68
2021/01/02 09:33:18;;;;;;;0.10;0.10;;;;;;;;;;4965529;28;20068;-69
2021/01/02 09:35:44;;;;;;;0.00;0.00;;;;;;;;;;4965585;28;20125;-68
2021/01/02 09:38:10;;;;;;;0.75;0.75;;;;;;;;;;4962091;28;20282;-67
2021/01/02 09:40:37;;;;;;;0.00;0.00;;;;;;;;;;4966589;28;20037;-67
2021/01/02 09:43:05;;;;;;;0.00;0.00;;;;;;;;;;4959205;28;20038;-68
2021/01/02 09:45:30;;;;;;;0.00;0.00;;;;;;;;;;4966833;28;20050;-68
2021/01/02 09:48:01;;;;;;;0.05;0.05;;;;;;;;;;4947930;28;20034;-68
2021/01/02 09:50:29;;;;;;;0.00;0.00;;;;;;;;;;4964116;28;20038;-69
2021/01/02 09:52:55;;;;;;;0.00;0.00;;;;;;;;;;4962528;28;20470;-68
2021/01/02 09:55:20;;;;;;;0.20;0.20;;;;;;;;;;4960936;28;20073;-68
2021/01/02 09:57:47;;;;;;;0.10;0.10;;;;;;;;;;4953253;28;20034;-68
2021/01/02 10:00:13;;;;;;;0.20;0.20;;;;;;;;;;4964875;28;20050;-69
2021/01/02 10:02:42;;;;;;;0.00;0.00;;;;;;;;;;4963977;28;20575;-68
2021/01/02 10:05:09;;;;;;;0.00;0.00;;;;;;;;;;4965841;28;20038;-68
2021/01/02 10:07:37;;;;;;;0.22;0.22;;;;;;;;;;4966261;28;20038;-69
2021/01/02 10:10:02;;;;;;;0.57;0.45;;;;;;;;;;4952717;28;20049;-67
2021/01/02 10:12:28;;;;;;;0.38;0.38;;;;;;;;;;4966382;28;20610;-68
2021/01/02 10:14:55;;;;;;;0.38;0.38;;;;;;;;;;4961549;28;20709;-68
2021/01/02 10:17:27;;;;;;;0.00;0.00;;;;;;;;;;4959718;28;20033;-69
2021/01/02 10:19:56;;;;;;;0.00;0.00;;;;;;;;;;4947993;28;20034;-68
2021/01/02 10:22:26;;;;;;;0.00;0.00;;;;;;;;;;4964256;28;20154;-67
2021/01/02 10:24:56;;;;;;;0.00;0.00;;;;;;;;;;4946082;28;20054;-68
2021/01/02 10:27:22;;;;;;;0.00;0.00;;;;;;;;;;4969695;28;20987;-68
2021/01/02 10:29:49;;;;;;;0.00;0.00;;;;;;;;;;4966906;28;20040;-68
2021/01/02 10:32:17;;;;;;;0.10;0.10;;;;;;;;;;4966234;28;20121;-68
2021/01/02 10:34:51;;;;;;;0.00;0.00;;;;;;;;;;4965147;28;20042;-68
2021/01/02 10:37:18;;;;;;;0.00;0.00;;;;;;;;;;4964779;28;20645;-67
2021/01/02 10:39:46;;;;;;;0.00;0.00;;;;;;;;;;4964840;28;20034;-69
2021/01/02 10:42:15;;;;;;;0.00;0.00;;;;;;;;;;4944549;28;20448;-68
2021/01/02 10:44:46;;;;;;;0.25;0.25;;;;;;;;;;4964817;28;20045;-69
2021/01/02 10:50:49;;;;;;;0.00;0.00;;;;;;;;;;4964657;28;20061;-67
2021/01/02 10:53:17;;;;;;;0.00;0.00;;;;;;;;;;4962946;28;20046;-68
2021/01/02 10:55:43;;;;;;;0.00;0.00;;;;;;;;;;4972773;23;20053;-86
2021/01/02 10:58:10;;;;;;;0.00;0.00;;;;;;;;;;5028400;28;20034;-83
2021/01/02 11:00:35;;;;;;;0.00;0.00;;;;;;;;;;5009996;28;20458;-84
2021/01/02 11:03:24;;;;;;;0.03;0.03;;;;;;;;;;5027681;28;20029;-86
2021/01/02 11:05:52;;;;;;;0.00;0.00;;;;;;;;;;5016320;28;20041;-81
2021/01/02 11:08:18;;;;;;;0.00;0.00;;;;;;;;;;5032325;28;20517;-82
2021/01/02 11:10:43;;;;;;;0.20;0.20;;;;;;;;;;5025989;28;20124;-81
2021/01/02 11:13:11;;;;;;;0.10;0.10;;;;;;;;;;5014316;28;20125;-82
2021/01/02 11:15:36;;;;;;;0.30;0.20;;;;;;;;;;5027943;28;20037;-83
2021/01/02 11:18:08;;;;;;;0.00;0.00;;;;;;;;;;5033191;28;20022;-83
2021/01/02 11:20:33;;;;;;;0.00;0.00;;;;;;;;;;5012175;28;20136;-82
2021/01/02 11:23:01;;;;;;;0.00;0.00;;;;;;;;;;5010750;28;20672;-81
2021/01/02 11:25:29;;;;;;;0.00;0.00;;;;;;;;;;5014003;28;20539;-80
2021/01/02 11:27:54;;;;;;;0.60;0.60;;;;;;;;;;5034200;28;20092;-80
2021/01/02 11:30:21;;;;;;;0.08;0.08;;;;;;;;;;5008800;28;20422;-81
2021/01/02 11:32:50;;;;;;;0.35;0.22;;;;;;;;;;5028766;28;20107;-81
2021/01/02 11:35:16;;;;;;;0.00;0.00;;;;;;;;;;5031304;28;20068;-82
2021/01/02 11:37:42;;;;;;;0.00;0.00;;;;;;;;;;5029159;28;20021;-82
2021/01/02 11:40:08;;;;;;;0.00;0.00;;;;;;;;;;5024125;28;20052;-83
2021/01/02 11:42:35;;;;;;;0.28;0.28;;;;;;;;;;5027599;28;20477;-82
2021/01/02 11:45:00;;;;;;;0.00;0.00;;;;;;;;;;5026189;28;20369;-81
2021/01/02 11:47:26;;;;;;;0.00;0.00;;;;;;;;;;5031322;28;20025;-81
2021/01/02 11:49:51;;;;;;;0.00;0.00;;;;;;;;;;5030542;28;20037;-81
2021/01/02 11:52:21;;;;;;;0.08;0.08;;;;;;;;;;5027143;28;20024;-82
2021/01/02 11:54:47;;;;;;;0.00;0.00;;;;;;;;;;5026184;28;20140;-82
2021/01/02 11:57:13;;;;;;;0.00;0.00;;;;;;;;;;5003819;28;20145;-84
2021/01/02 11:59:41;;;;;;;0.00;0.00;;;;;;;;;;5011061;28;20188;-82
2021/01/02 12:02:07;;;;;;;0.00;0.00;;;;;;;;;;5025334;28;20493;-80
2021/01/02 12:04:33;;;;;;;0.00;0.00;;;;;;;;;;5024277;28;20041;-82
2021/01/02 12:07:03;;;;;;;0.10;0.10;;;;;;;;;;5028490;28;20052;-81
2021/01/02 12:09:31;;;;;;;1.40;0.73;;;;;;;;;;5006154;28;20021;-81
2021/01/02 12:11:59;;;;;;;0.00;0.00;;;;;;;;;;5024309;28;20053;-81
2021/01/02 12:14:29;;;;;;;0.40;0.40;;;;;;;;;;5025258;28;20060;-83
2021/01/02 12:16:57;;;;;;;0.57;0.38;;;;;;;;;;5024270;28;20790;-82
2021/01/02 12:19:27;;;;;;;0.10;0.10;;;;;;;;;;5010867;28;20028;-80
2021/01/02 12:21:53;;;;;;;0.00;0.00;;;;;;;;;;5026118;28;20034;-80
2021/01/02 12:24:18;;;;;;;0.00;0.00;;;;;;;;;;5028751;28;20060;-81
2021/01/02 12:26:45;;;;;;;0.55;0.55;;;;;;;;;;5027186;28;20431;-80
2021/01/02 12:29:12;;;;;;;0.00;0.00;;;;;;;;;;5030407;28;20042;-81
2021/01/02 12:31:40;;;;;;;0.00;0.00;;;;;;;;;;5025341;28;20112;-81
2021/01/02 12:34:05;;;;;;;0.00;0.00;;;;;;;;;;5027346;28;20086;-81
2021/01/02 12:36:36;;;;;;;0.00;0.00;;;;;;;;;;5024331;28;20116;-84
2021/01/02 12:39:03;;;;;;;0.00;0.00;;;;;;;;;;5025094;28;20032;-83
2021/01/02 12:41:28;;;;;;;0.00;0.00;;;;;;;;;;5025811;28;20037;-83
2021/01/02 12:43:54;;;;;;;0.00;0.00;;;;;;;;;;5007986;28;20095;-83
2021/01/02 12:46:22;;;;;;;1.45;0.55;;;;;;;;;;5008666;28;20025;-83
2021/01/02 12:48:52;;;;;;;0.17;0.17;;;;;;;;;;5024197;28;20602;-84
2021/01/02 12:51:19;;;;;;;0.00;0.00;;;;;;;;;;5021215;28;20065;-83
2021/01/02 12:53:45;;;;;;;0.00;0.00;;;;;;;;;;5025632;28;20333;-82
2021/01/02 12:56:11;;;;;;;0.30;0.30;;;;;;;;;;5023142;28;20045;-82
2021/01/02 12:58:41;;;;;;;0.95;0.88;;;;;;;;;;5008250;28;20051;-82
2021/01/02 13:01:06;;;;;;;0.00;0.00;;;;;;;;;;5025466;28;20116;-82
2021/01/02 13:03:32;;;;;;;0.38;0.38;;;;;;;;;;5021013;28;20044;-82
2021/01/02 13:05:59;;;;;;;0.00;0.00;;;;;;;;;;5024136;28;20030;-82
2021/01/02 13:08:24;;;;;;;0.00;0.00;;;;;;;;;;5027278;28;20041;-81
2021/01/02 13:10:49;;;;;;;0.08;0.08;;;;;;;;;;5023460;28;20026;-81
2021/01/02 13:13:17;;;;;;;0.10;0.10;;;;;;;;;;5024359;28;20020;-81
2021/01/02 13:15:42;;;;;;;0.00;0.00;;;;;;;;;;5023072;28;20025;-82
2021/01/02 13:18:08;;;;;;;0.75;0.75;;;;;;;;;;5025644;28;20401;-82
2021/01/02 13:20:34;;;;;;;1.13;0.38;;;;;;;;;;5028406;28;20065;-83
2021/01/02 13:23:05;;;;;;;0.73;0.73;;;;;;;;;;5012274;28;20117;-82
2021/01/02 13:25:31;;;;;;;0.10;0.10;;;;;;;;;;5032905;28;20983;-82
2021/01/02 13:28:01;;;;;;;0.00;0.00;;;;;;;;;;5035684;28;20048;-82
2021/01/02 13:30:29;;;;;;;0.00;0.00;;;;;;;;;;5002637;28;20106;-81
2021/01/02 13:32:56;;;;;;;0.00;0.00;;;;;;;;;;5034170;28;20044;-81
2021/01/02 13:35:23;;;;;;;0.20;0.17;;;;;;;;;;5033757;28;20041;-83
2021/01/02 13:37:50;;;;;;;0.00;0.00;;;;;;;;;;5030923;28;20025;-81
2021/01/02 13:40:15;;;;;;;0.00;0.00;;;;;;;;;;5034459;28;20091;-82
2021/01/02 13:42:41;;;;;;;0.20;0.20;;;;;;;;;;5033198;28;20599;-82
2021/01/02 13:45:07;;;;;;;0.00;0.00;;;;;;;;;;5012975;28;20029;-80
2021/01/02 13:47:33;;;;;;;0.00;0.00;;;;;;;;;;5032361;28;20097;-82
2021/01/02 13:50:02;;;;;;;0.00;0.00;;;;;;;;;;5031731;28;20032;-80
2021/01/02 13:52:28;;;;;;;1.35;0.55;;;;;;;;;;5033886;28;20017;-82
2021/01/02 13:54:58;;;;;;;0.20;0.20;;;;;;;;;;5032848;28;20386;-81
2021/01/02 13:57:26;;;;;;;0.00;0.00;;;;;;;;;;5017111;28;20625;-82
2021/01/02 13:59:53;;;;;;;0.00;0.00;;;;;;;;;;5015321;28;20204;-80
2021/01/02 14:02:18;;;;;;;0.00;0.00;;;;;;;;;;5029519;28;20498;-82
2021/01/02 14:04:45;;;;;;;0.00;0.00;;;;;;;;;;5027161;28;20038;-81
2021/01/02 14:07:10;;;;;;;0.00;0.00;;;;;;;;;;5026492;28;20071;-84
2021/01/02 14:09:39;;;;;;;0.13;0.13;;;;;;;;;;5026482;28;20278;-84
2021/01/02 14:12:05;;;;;;;0.00;0.00;;;;;;;;;;5029754;28;20438;-83
2021/01/02 14:14:33;;;;;;;0.00;0.00;;;;;;;;;;5024020;28;20039;-83
2021/01/02 14:16:59;;;;;;;0.00;0.00;;;;;;;;;;5027894;28;20037;-83
2021/01/02 14:19:26;;;;;;;0.00;0.00;;;;;;;;;;5028450;28;20030;-82
2021/01/02 14:21:53;;;;;;;0.00;0.00;;;;;;;;;;5025935;28;20036;-82
2021/01/02 14:24:19;;;;;;;0.00;0.00;;;;;;;;;;5022876;28;20022;-83
2021/01/02 14:26:48;;;;;;;0.00;0.00;;;;;;;;;;5012355;28;20029;-83
2021/01/02 14:29:13;;;;;;;0.40;0.20;;;;;;;;;;5007751;28;20113;-85
2021/01/02 14:31:40;;;;;;;0.00;0.00;;;;;;;;;;5006278;28;20111;-84
2021/01/02 14:34:07;;;;;;;0.65;0.65;;;;;;;;;;5030057;28;20150;-84
2021/01/02 14:36:32;;;;;;;0.00;0.00;;;;;;;;;;5028860;28;20135;-83
2021/01/02 14:39:00;;;;;;;0.00;0.00;;;;;;;;;;5027303;28;20056;-82
2021/01/02 14:41:26;;;;;;;0.00;0.00;;;;;;;;;;5030925;28;20028;-82
2021/01/02 14:43:56;;;;;;;0.00;0.00;;;;;;;;;;5027241;28;20045;-82
2021/01/02 14:46:28;;;;;;;0.00;0.00;;;;;;;;;;5006292;28;20056;-80
2021/01/02 14:48:56;;;;;;;0.00;0.00;;;;;;;;;;5031470;28;20032;-81
2021/01/02 14:51:30;;;;;;;0.00;0.00;;;;;;;;;;5028122;28;20036;-81
2021/01/02 14:53:56;;;;;;;0.00;0.00;;;;;;;;;;5028573;28;20016;-82
2021/01/02 14:56:24;;;;;;;0.00;0.00;;;;;;;;;;5009600;28;20052;-81
2021/01/02 14:58:54;;;;;;;0.00;0.00;;;;;;;;;;5024959;28;20025;-80
2021/01/02 15:01:19;;;;;;;0.00;0.00;;;;;;;;;;5030991;28;20040;-80
2021/01/02 15:03:45;;;;;;;0.00;0.00;;;;;;;;;;5014961;28;20033;-83
2021/01/02 15:06:19;;;;;;;0.00;0.00;;;;;;;;;;5030010;28;20033;-84